Time;durP1;ratioP1;P1;durP2;ratioP2;P2;SDS_P1;SDS_P2;PMS_P1;PMS_P2;Temp;Humidity;BMP_temperature;BMP_pressure;BME280_temperature;BME280_humidity;BME280_pressure;Samples;Min_cycle;Max_cycle;Signal;HPM_P1;HPM_P2
2021/07/08 00:00:59;;;;;;;2.47;2.10;;;19.60;64.90;;;;;;5758584;22;20048;-96
2021/07/08 00:05:53;;;;;;;2.42;2.10;;;19.50;65.10;;;;;;5046716;28;20050;-96
2021/07/08 00:10:59;;;;;;;2.65;2.22;;;19.50;66.00;;;;;;5049612;28;20045;-96
2021/07/08 00:13:30;;;;;;;3.80;2.28;;;19.40;65.40;;;;;;5048055;28;20018;-96
2021/07/08 00:16:06;;;;;;;3.35;2.40;;;19.40;65.40;;;;;;5019880;28;20498;-96
2021/07/08 00:19:15;;;;;;;3.72;2.45;;;19.40;65.40;;;;;;5044369;28;20053;-96
2021/07/08 00:21:43;;;;;;;2.70;2.30;;;19.40;65.60;;;;;;5032934;28;20042;-96
2021/07/08 00:24:18;;;;;;;3.45;2.42;;;19.30;65.70;;;;;;5010709;28;20094;-96
2021/07/08 00:26:44;;;;;;;2.90;2.60;;;19.30;65.90;;;;;;5025192;28;20022;-96
2021/07/08 00:29:11;;;;;;;3.75;2.58;;;19.30;66.00;;;;;;5018796;28;20037;-96
2021/07/08 01:10:33;;;;;;;3.33;2.13;;;19.00;67.00;;;;;;5033130;26;20038;-96
2021/07/08 01:13:28;;;;;;;;;;;19.00;67.20;;;;;;5022212;28;20036;-96
2021/07/08 01:15:59;;;;;;;2.22;1.98;;;19.00;67.00;;;;;;5019615;28;19921;-96
2021/07/08 01:18:41;;;;;;;2.63;2.20;;;18.90;67.30;;;;;;5017076;28;20082;-96
2021/07/08 01:21:30;;;;;;;2.53;2.33;;;19.00;67.60;;;;;;5042576;23;20044;-96
2021/07/08 01:23:58;;;;;;;2.60;1.95;;;19.00;67.50;;;;;;5061859;28;20021;-96
2021/07/08 01:26:24;;;;;;;3.00;2.60;;;18.90;67.50;;;;;;5050339;28;20017;-96
2021/07/08 01:28:51;;;;;;;2.30;2.10;;;19.00;67.60;;;;;;5059159;28;20108;-96
2021/07/08 01:31:30;;;;;;;2.60;2.05;;;19.00;67.50;;;;;;5051185;28;20105;-96
2021/07/08 01:37:02;;;;;;;2.92;2.10;;;18.90;67.80;;;;;;5036306;28;20070;-96
2021/07/08 01:39:27;;;;;;;2.17;1.98;;;18.90;67.80;;;;;;5055029;28;20021;-95
2021/07/08 01:41:53;;;;;;;2.45;2.20;;;19.00;67.80;;;;;;5036755;28;20040;-96
2021/07/08 01:44:18;;;;;;;3.17;2.00;;;19.00;67.80;;;;;;5037540;28;20017;-96
2021/07/08 01:46:45;;;;;;;3.05;2.05;;;19.00;67.80;;;;;;5054387;28;20067;-95
2021/07/08 01:49:11;;;;;;;2.95;2.05;;;19.00;67.70;;;;;;5049273;28;20083;-96
2021/07/08 01:51:37;;;;;;;2.50;2.15;;;19.00;67.90;;;;;;5016806;28;20029;-95
2021/07/08 01:54:05;;;;;;;3.28;2.15;;;18.90;68.10;;;;;;5034725;28;20117;-95
2021/07/08 01:56:30;;;;;;;2.53;1.95;;;18.90;68.20;;;;;;5017080;28;20443;-96
2021/07/08 01:58:56;;;;;;;1.95;1.80;;;18.90;68.40;;;;;;5016742;28;20014;-95
2021/07/08 02:06:33;;;;;;;2.70;2.17;;;19.00;68.30;;;;;;5543951;22;20040;-96
2021/07/08 02:08:59;;;;;;;4.38;1.80;;;19.00;68.20;;;;;;5052155;28;20047;-96
2021/07/08 02:11:25;;;;;;;3.38;2.05;;;19.00;68.20;;;;;;5067548;28;20025;-96
2021/07/08 02:13:55;;;;;;;2.53;2.00;;;19.10;68.20;;;;;;5067782;28;20691;-96
2021/07/08 02:16:21;;;;;;;3.75;1.90;;;19.10;68.00;;;;;;5050552;28;20044;-96
2021/07/08 02:18:47;;;;;;;2.03;1.83;;;19.10;67.90;;;;;;5043146;28;20040;-96
2021/07/08 02:21:13;;;;;;;2.03;1.80;;;19.10;68.10;;;;;;5039663;28;20033;-95
2021/07/08 02:23:51;;;;;;;2.00;1.90;;;19.10;68.30;;;;;;5042569;28;20025;-96
2021/07/08 02:26:17;;;;;;;2.40;2.00;;;19.10;68.20;;;;;;5041586;28;20085;-96
2021/07/08 02:28:43;;;;;;;1.80;1.70;;;19.10;68.10;;;;;;5033976;28;20044;-96
2021/07/08 02:31:43;;;;;;;2.33;2.00;;;19.10;68.20;;;;;;5070067;23;20109;-96
2021/07/08 02:39:19;;;;;;;1.63;1.50;;;19.10;68.30;;;;;;5060814;22;20274;-96
2021/07/08 02:41:45;;;;;;;3.17;2.10;;;19.10;68.20;;;;;;5055599;28;20033;-96
2021/07/08 02:44:10;;;;;;;2.80;2.00;;;19.10;68.10;;;;;;5053637;28;20036;-96
2021/07/08 02:46:36;;;;;;;3.58;2.17;;;19.10;68.00;;;;;;5055981;28;20464;-96
2021/07/08 02:49:02;;;;;;;2.05;1.90;;;19.10;67.90;;;;;;5058372;28;20043;-96
2021/07/08 02:51:28;;;;;;;3.17;1.98;;;19.00;67.90;;;;;;5058798;28;20025;-96
2021/07/08 02:53:53;;;;;;;3.60;1.98;;;19.00;68.00;;;;;;5056708;28;20018;-96
2021/07/08 02:56:19;;;;;;;3.55;2.17;;;19.00;68.10;;;;;;5058194;28;20040;-96
2021/07/08 02:58:45;;;;;;;2.28;1.90;;;18.90;68.10;;;;;;5057941;28;20513;-96
2021/07/08 03:16:43;;;;;;;2.88;2.00;;;18.80;68.60;;;;;;5210622;22;20500;-95
2021/07/08 03:19:08;;;;;;;2.40;2.20;;;18.80;68.70;;;;;;5038344;28;20063;-96
2021/07/08 03:21:34;;;;;;;2.47;2.08;;;18.80;68.70;;;;;;5035118;28;20041;-96
2021/07/08 03:24:00;;;;;;;3.30;2.20;;;18.80;68.70;;;;;;5033979;28;20496;-96
2021/07/08 03:26:25;;;;;;;3.25;2.20;;;18.90;68.60;;;;;;5033614;28;20049;-94
2021/07/08 03:28:51;;;;;;;2.63;2.10;;;18.90;68.60;;;;;;5032499;28;20022;-95
2021/07/08 03:31:19;;;;;;;2.92;2.05;;;18.90;68.50;;;;;;5033505;28;20018;-94
2021/07/08 03:33:44;;;;;;;2.78;2.20;;;19.00;68.40;;;;;;5036344;28;20047;-92
2021/07/08 03:36:10;;;;;;;3.35;2.50;;;19.00;68.30;;;;;;5042173;28;20037;-93
2021/07/08 03:38:36;;;;;;;4.10;2.28;;;19.00;68.30;;;;;;5035693;28;20033;-94
2021/07/08 03:41:02;;;;;;;3.72;2.30;;;19.00;68.30;;;;;;5033627;28;20148;-94
2021/07/08 03:43:28;;;;;;;3.97;2.33;;;19.10;68.20;;;;;;5032668;28;20018;-95
2021/07/08 03:45:53;;;;;;;3.22;2.17;;;19.10;68.20;;;;;;5033315;28;20040;-95
2021/07/08 03:48:19;;;;;;;3.17;2.20;;;19.10;68.30;;;;;;5032721;28;20083;-96
2021/07/08 03:50:44;;;;;;;3.65;2.10;;;19.10;68.30;;;;;;5037965;28;20017;-94
2021/07/08 03:53:10;;;;;;;2.28;2.00;;;19.10;68.30;;;;;;5052389;28;20142;-94
2021/07/08 03:55:36;;;;;;;2.25;2.00;;;19.10;68.30;;;;;;5052985;28;20028;-94
2021/07/08 03:58:02;;;;;;;2.72;2.20;;;19.10;68.30;;;;;;5052586;28;20025;-94
2021/07/08 04:00:33;;;;;;;2.45;2.05;;;19.20;68.30;;;;;;5052853;28;20668;-94
2021/07/08 04:03:03;;;;;;;2.95;2.20;;;19.20;68.40;;;;;;5052073;28;20028;-94
2021/07/08 04:05:30;;;;;;;3.58;2.22;;;19.20;68.40;;;;;;5288718;22;20036;-96
2021/07/08 04:07:55;;;;;;;3.10;1.77;;;19.30;68.40;;;;;;5041081;28;20018;-96
2021/07/08 04:10:21;;;;;;;1.90;1.70;;;19.20;68.50;;;;;;5042020;28;20029;-95
2021/07/08 04:12:48;;;;;;;3.22;2.00;;;19.20;68.60;;;;;;5042608;28;20049;-95
2021/07/08 04:15:13;;;;;;;2.20;2.00;;;19.20;68.80;;;;;;5027928;28;20480;-95
2021/07/08 04:21:21;;;;;;;2.35;1.80;;;19.30;68.70;;;;;;5056623;28;20037;-96
2021/07/08 04:27:41;;;;;;;2.40;1.65;;;19.30;68.50;;;;;;5055508;28;20064;-96
2021/07/08 04:30:09;;;;;;;4.65;1.83;;;19.40;68.50;;;;;;5018463;28;20037;-96
2021/07/08 04:32:37;;;;;;;2.13;1.88;;;19.40;68.40;;;;;;5033340;28;20037;-96
2021/07/08 04:35:04;;;;;;;3.00;2.03;;;19.40;68.40;;;;;;5034156;28;20101;-96
2021/07/08 04:37:30;;;;;;;3.05;1.80;;;19.40;68.70;;;;;;5036421;28;20488;-95
2021/07/08 04:39:56;;;;;;;1.92;1.73;;;19.40;68.90;;;;;;5034222;28;20025;-96
2021/07/08 04:42:22;;;;;;;2.10;1.90;;;19.40;69.00;;;;;;5015943;28;20021;-96
2021/07/08 04:44:47;;;;;;;2.42;2.00;;;19.40;68.90;;;;;;5034019;28;20033;-96
2021/07/08 04:47:14;;;;;;;3.65;1.90;;;19.40;68.80;;;;;;5017652;28;20025;-96
2021/07/08 04:49:40;;;;;;;2.17;1.95;;;19.40;68.80;;;;;;5035634;28;20048;-96
2021/07/08 04:52:07;;;;;;;2.70;2.00;;;19.50;68.70;;;;;;5036074;28;20021;-96
2021/07/08 04:54:33;;;;;;;2.25;2.05;;;19.50;68.60;;;;;;5039063;28;20025;-96
2021/07/08 04:56:59;;;;;;;3.00;2.17;;;19.50;68.50;;;;;;5039096;28;20025;-96
2021/07/08 04:59:24;;;;;;;3.45;2.28;;;19.60;68.60;;;;;;5048124;28;20053;-96
2021/07/08 05:01:50;;;;;;;3.63;2.05;;;19.60;68.50;;;;;;5053054;28;20032;-95
2021/07/08 05:04:16;;;;;;;4.20;2.67;;;19.60;68.40;;;;;;5059001;28;20024;-96
2021/07/08 05:06:41;;;;;;;2.85;2.40;;;19.60;68.40;;;;;;5057396;28;20040;-96
2021/07/08 05:09:09;;;;;;;3.00;2.13;;;19.60;68.40;;;;;;5058730;28;20097;-96
2021/07/08 05:11:36;;;;;;;3.35;2.50;;;19.60;68.30;;;;;;5049781;28;20040;-96
2021/07/08 05:14:02;;;;;;;4.30;2.47;;;19.60;68.90;;;;;;5020990;28;20037;-96
2021/07/08 05:16:27;;;;;;;3.60;2.67;;;19.70;68.20;;;;;;5020555;28;20078;-96
2021/07/08 05:18:57;;;;;;;4.35;2.90;;;20.20;67.50;;;;;;5044725;28;20021;-96
2021/07/08 05:21:22;;;;;;;3.40;2.90;;;20.60;66.20;;;;;;5005870;28;20038;-96
2021/07/08 05:23:48;;;;;;;3.75;3.13;;;20.60;65.90;;;;;;5037376;28;20091;-96
2021/07/08 05:37:45;;;;;;;6.95;3.85;;;21.30;64.40;;;;;;5602925;22;20073;-96
2021/07/08 05:40:11;;;;;;;5.45;4.25;;;21.20;64.80;;;;;;5040203;28;20113;-96
2021/07/08 05:42:41;;;;;;;6.63;4.43;;;21.20;65.10;;;;;;5054707;28;20033;-96
2021/07/08 05:45:08;;;;;;;6.10;4.47;;;21.40;64.80;;;;;;5049496;28;20030;-96
2021/07/08 05:47:34;;;;;;;6.13;4.63;;;21.80;64.30;;;;;;5042314;28;20061;-96
2021/07/08 05:50:00;;;;;;;4.70;3.88;;;22.40;63.20;;;;;;5043883;28;20033;-96
2021/07/08 05:52:25;;;;;;;4.50;3.67;;;22.80;61.80;;;;;;5035437;28;20028;-93
2021/07/08 05:54:51;;;;;;;6.28;4.00;;;22.50;62.10;;;;;;5034865;28;20047;-93
2021/07/08 05:57:17;;;;;;;3.83;2.78;;;22.10;62.70;;;;;;5035456;28;20014;-95
2021/07/08 05:59:45;;;;;;;5.40;4.00;;;21.90;63.30;;;;;;5015665;28;20026;-96
2021/07/08 06:02:11;;;;;;;5.88;4.10;;;21.70;63.90;;;;;;5016540;28;20033;-92
2021/07/08 06:04:37;;;;;;;4.50;4.03;;;21.60;64.40;;;;;;5028346;28;20022;-95
2021/07/08 06:07:03;;;;;;;5.78;4.78;;;21.70;64.70;;;;;;5015468;28;20022;-96
2021/07/08 06:09:28;;;;;;;5.50;4.13;;;21.90;64.70;;;;;;5021921;28;20057;-96
2021/07/08 06:11:56;;;;;;;4.15;3.33;;;22.30;64.00;;;;;;5032378;28;20086;-96
2021/07/08 06:14:22;;;;;;;3.63;3.25;;;22.40;63.60;;;;;;5039499;28;20032;-96
2021/07/08 06:16:48;;;;;;;4.50;3.63;;;22.80;63.20;;;;;;5062495;28;20025;-96
2021/07/08 06:19:14;;;;;;;4.63;3.92;;;23.10;62.60;;;;;;5059079;28;20035;-95
2021/07/08 06:21:39;;;;;;;3.58;3.28;;;23.10;62.20;;;;;;5059143;28;20059;-96
2021/07/08 06:24:21;;;;;;;6.35;3.42;;;23.10;62.20;;;;;;5042475;28;20105;-96
2021/07/08 06:26:55;;;;;;;4.60;3.50;;;23.10;62.20;;;;;;5039523;28;20109;-96
2021/07/08 06:32:05;;;;;;;3.03;2.58;;;23.10;62.20;;;;;;5049699;28;20053;-96
2021/07/08 06:34:30;;;;;;;3.13;2.60;;;23.10;62.20;;;;;;5207435;22;20341;-96
2021/07/08 06:36:56;;;;;;;4.47;3.25;;;23.10;62.20;;;;;;5004074;28;20429;-96
2021/07/08 06:39:22;;;;;;;3.60;2.95;;;23.10;62.30;;;;;;5028158;28;20089;-96
2021/07/08 06:41:47;;;;;;;4.13;2.67;;;23.10;62.30;;;;;;4999445;28;20121;-94
2021/07/08 06:44:13;;;;;;;3.97;3.22;;;23.10;62.30;;;;;;5014483;28;20125;-95
2021/07/08 06:46:39;;;;;;;4.70;3.63;;;23.20;62.20;;;;;;5015091;28;20022;-96
2021/07/08 06:49:30;;;;;;;4.22;3.20;;;23.30;62.10;;;;;;5008008;28;20022;-96
2021/07/08 06:51:56;;;;;;;5.10;3.72;;;23.40;62.00;;;;;;5003075;28;20034;-94
2021/07/08 06:54:22;;;;;;;5.80;4.10;;;23.40;61.50;;;;;;5014727;28;20083;-95
2021/07/08 06:56:48;;;;;;;30.70;26.70;;;23.50;61.40;;;;;;5015566;28;20022;-96
2021/07/08 06:59:13;;;;;;;10.30;9.10;;;23.60;61.30;;;;;;5013678;28;20014;-94
2021/07/08 07:01:40;;;;;;;6.75;4.82;;;23.60;61.30;;;;;;5013532;28;20049;-91
2021/07/08 07:04:05;;;;;;;6.07;4.53;;;23.80;61.20;;;;;;5006022;28;20022;-95
2021/07/08 07:06:31;;;;;;;3.75;3.38;;;23.90;60.80;;;;;;5015517;28;20032;-91
2021/07/08 07:08:57;;;;;;;4.50;4.10;;;24.00;60.60;;;;;;4993774;28;20022;-89
2021/07/08 07:11:25;;;;;;;4.68;3.47;;;24.10;60.30;;;;;;4958819;28;20081;-93
2021/07/08 07:13:51;;;;;;;4.22;3.28;;;24.30;60.00;;;;;;4957027;28;20023;-91
2021/07/08 07:16:16;;;;;;;4.47;3.17;;;24.50;59.80;;;;;;4956991;28;20026;-92
2021/07/08 07:18:42;;;;;;;3.08;2.60;;;24.60;59.50;;;;;;4974733;28;20130;-94
2021/07/08 07:21:11;;;;;;;3.97;3.03;;;24.60;59.10;;;;;;4962716;28;20045;-93
2021/07/08 07:23:38;;;;;;;4.15;3.10;;;24.60;59.10;;;;;;4970261;28;20050;-90
2021/07/08 07:26:04;;;;;;;5.28;3.60;;;24.70;58.90;;;;;;4965009;28;20018;-94
2021/07/08 07:28:30;;;;;;;5.10;3.80;;;24.90;58.70;;;;;;4978854;28;20034;-93
2021/07/08 07:30:55;;;;;;;4.38;3.45;;;24.80;58.10;;;;;;4974547;28;20055;-94
2021/07/08 07:33:22;;;;;;;3.60;2.97;;;25.00;58.00;;;;;;4979286;28;20022;-93
2021/07/08 07:35:48;;;;;;;4.68;3.38;;;25.00;57.80;;;;;;4982970;28;20074;-91
2021/07/08 07:38:15;;;;;;;3.90;3.33;;;25.00;57.40;;;;;;4977126;28;20480;-90
2021/07/08 07:40:42;;;;;;;4.03;2.90;;;25.10;57.30;;;;;;4982105;28;20034;-90
2021/07/08 07:43:09;;;;;;;5.30;3.55;;;25.30;57.10;;;;;;4977754;28;20054;-88
2021/07/08 07:45:35;;;;;;;4.35;2.70;;;25.40;56.70;;;;;;4972540;28;20497;-92
2021/07/08 07:48:01;;;;;;;4.60;2.83;;;25.60;56.40;;;;;;4974797;28;20049;-92
2021/07/08 07:50:33;;;;;;;3.45;3.03;;;25.70;56.30;;;;;;4969833;28;20038;-95
2021/07/08 07:52:59;;;;;;;3.83;2.65;;;25.80;56.10;;;;;;4991606;28;20037;-93
2021/07/08 07:55:28;;;;;;;5.22;2.72;;;26.00;55.80;;;;;;4979064;28;20027;-95
2021/07/08 07:57:58;;;;;;;5.57;3.45;;;26.00;55.30;;;;;;4977583;28;20077;-94
2021/07/08 08:00:25;;;;;;;2.80;2.50;;;26.00;55.00;;;;;;4966717;28;20120;-95
2021/07/08 08:02:52;;;;;;;4.25;3.03;;;26.00;54.80;;;;;;4976597;28;20538;-95
2021/07/08 08:05:33;;;;;;;3.22;2.80;;;26.10;54.40;;;;;;4973710;28;20062;-93
2021/07/08 08:10:48;;;;;;;2.58;2.17;;;26.40;53.90;;;;;;4995438;28;20033;-94
2021/07/08 08:13:14;;;;;;;3.97;2.88;;;26.30;53.60;;;;;;4967213;28;20113;-93
2021/07/08 08:15:40;;;;;;;3.25;2.67;;;26.20;53.40;;;;;;4979795;28;20058;-93
2021/07/08 08:18:06;;;;;;;2.97;2.28;;;26.10;53.40;;;;;;4998250;28;20611;-90
2021/07/08 08:20:33;;;;;;;4.28;2.47;;;26.10;53.60;;;;;;4982617;28;20039;-94
2021/07/08 08:22:59;;;;;;;1.95;1.77;;;26.10;53.60;;;;;;4993811;28;20053;-92
2021/07/08 08:25:24;;;;;;;7.45;2.85;;;26.10;53.60;;;;;;4961024;28;20039;-88
2021/07/08 08:27:53;;;;;;;3.75;2.63;;;26.10;53.50;;;;;;4988458;28;20026;-92
2021/07/08 08:30:19;;;;;;;3.60;2.35;;;26.10;53.20;;;;;;4981780;28;20052;-89
2021/07/08 08:32:45;;;;;;;3.53;2.45;;;26.10;53.20;;;;;;4978241;28;20472;-90
2021/07/08 08:35:11;;;;;;;3.50;2.60;;;26.10;53.10;;;;;;4973577;28;20054;-89
2021/07/08 08:37:43;;;;;;;2.20;2.00;;;26.10;53.00;;;;;;4981222;28;20038;-95
2021/07/08 08:40:10;;;;;;;2.88;2.22;;;26.20;52.90;;;;;;5223433;23;20052;-95
2021/07/08 08:42:36;;;;;;;3.85;2.72;;;26.10;52.90;;;;;;5031690;28;20053;-93
2021/07/08 08:45:06;;;;;;;3.40;2.65;;;26.10;52.80;;;;;;5039632;28;20037;-91
2021/07/08 08:47:32;;;;;;;2.58;2.10;;;26.10;52.50;;;;;;5015519;28;20034;-92
2021/07/08 08:49:59;;;;;;;4.65;2.60;;;26.20;52.40;;;;;;5016553;28;20041;-92
2021/07/08 08:52:27;;;;;;;3.42;2.58;;;26.20;52.30;;;;;;5016047;28;20014;-94
2021/07/08 09:02:59;;;;;;;2.97;2.25;;;26.30;52.50;;;;;;5042715;22;20509;-94
2021/07/08 09:05:24;;;;;;;3.42;2.00;;;26.30;52.20;;;;;;5047053;28;20442;-90
2021/07/08 09:07:50;;;;;;;4.68;2.20;;;26.40;52.20;;;;;;5035584;28;20028;-91
2021/07/08 09:10:19;;;;;;;2.40;1.58;;;26.30;52.00;;;;;;5021216;28;20037;-91
2021/07/08 09:12:56;;;;;;;2.63;1.92;;;26.50;52.20;;;;;;5005552;28;20524;-92
2021/07/08 09:15:22;;;;;;;2.70;2.25;;;26.40;52.50;;;;;;5014955;28;20026;-88
2021/07/08 09:17:48;;;;;;;2.58;2.17;;;26.60;52.10;;;;;;5003205;28;20095;-87
2021/07/08 09:20:19;;;;;;;3.50;2.60;;;26.70;51.10;;;;;;5012912;28;20034;-90
2021/07/08 09:22:46;;;;;;;2.88;2.03;;;26.70;50.60;;;;;;5007067;28;20027;-88
2021/07/08 09:25:21;;;;;;;3.13;2.00;;;26.70;50.60;;;;;;5001323;28;20037;-88
2021/07/08 09:27:48;;;;;;;3.40;1.98;;;26.70;50.60;;;;;;5009293;28;20469;-89
2021/07/08 09:30:28;;;;;;;2.92;2.00;;;26.70;50.70;;;;;;4999213;28;20034;-90
2021/07/08 09:32:54;;;;;;;2.38;1.98;;;26.80;50.70;;;;;;4994812;28;20136;-90
2021/07/08 09:35:37;;;;;;;2.63;1.70;;;26.80;50.40;;;;;;5013932;28;20073;-90
2021/07/08 09:38:13;;;;;;;2.97;1.83;;;26.90;50.40;;;;;;5011392;28;20065;-90
2021/07/08 09:40:41;;;;;;;4.47;1.65;;;26.70;50.10;;;;;;5015532;28;20397;-91
2021/07/08 09:43:07;;;;;;;2.55;1.42;;;26.70;50.20;;;;;;5013990;28;20025;-90
2021/07/08 09:45:44;;;;;;;2.42;1.70;;;26.80;50.30;;;;;;5009169;28;20030;-89
2021/07/08 09:48:18;;;;;;;2.90;1.92;;;27.00;50.20;;;;;;5001357;28;20104;-91
2021/07/08 09:50:45;;;;;;;2.83;1.70;;;27.10;49.70;;;;;;5014796;28;20030;-91
2021/07/08 09:53:23;;;;;;;2.90;1.83;;;27.20;49.40;;;;;;5002192;28;20037;-89
2021/07/08 09:56:02;;;;;;;2.90;1.75;;;27.30;49.80;;;;;;4995495;28;20030;-91
2021/07/08 09:58:34;;;;;;;2.45;1.70;;;27.60;48.90;;;;;;5012968;28;20558;-89
2021/07/08 10:01:17;;;;;;;2.72;1.60;;;27.60;48.40;;;;;;5014026;28;20068;-89
2021/07/08 10:03:48;;;;;;;3.38;1.40;;;27.70;48.50;;;;;;5002747;28;20065;-88
2021/07/08 10:06:16;;;;;;;3.92;1.70;;;27.70;48.50;;;;;;5002594;28;20034;-87
2021/07/08 10:08:42;;;;;;;2.20;1.70;;;27.70;48.30;;;;;;5004571;28;20029;-89
2021/07/08 10:11:16;;;;;;;2.58;1.58;;;27.60;48.20;;;;;;5003880;28;20087;-88
2021/07/08 10:13:43;;;;;;;2.22;1.60;;;27.40;48.50;;;;;;5004910;28;20112;-88
2021/07/08 10:16:22;;;;;;;3.10;1.83;;;27.20;48.50;;;;;;5006673;28;20026;-93
2021/07/08 10:18:53;;;;;;;4.10;2.00;;;27.10;48.70;;;;;;5008200;28;20026;-93
2021/07/08 10:21:20;;;;;;;3.00;2.00;;;27.00;49.00;;;;;;5006195;28;20069;-92
2021/07/08 10:23:53;;;;;;;2.72;1.88;;;27.00;48.90;;;;;;5013880;28;20022;-93
2021/07/08 10:26:19;;;;;;;3.03;2.08;;;27.00;48.60;;;;;;5014506;28;20033;-92
2021/07/08 10:28:47;;;;;;;2.65;1.90;;;26.90;48.70;;;;;;5013713;28;20289;-92
2021/07/08 10:31:16;;;;;;;2.35;1.60;;;26.90;48.70;;;;;;5013081;28;20093;-92
2021/07/08 10:34:01;;;;;;;4.63;1.70;;;27.00;48.70;;;;;;5012206;28;20037;-93
2021/07/08 10:36:31;;;;;;;3.58;2.17;;;27.00;48.40;;;;;;4995346;28;20022;-92
2021/07/08 10:39:05;;;;;;;3.70;2.33;;;26.90;48.50;;;;;;5006863;28;20030;-93
2021/07/08 10:41:34;;;;;;;3.55;1.85;;;26.90;48.40;;;;;;5005202;28;20061;-91
2021/07/08 10:43:59;;;;;;;2.90;1.90;;;26.90;48.20;;;;;;5015180;28;20029;-93
2021/07/08 10:46:34;;;;;;;2.72;2.10;;;26.90;48.00;;;;;;5014935;28;20034;-93
2021/07/08 10:57:00;;;;;;;3.42;1.92;;;27.10;47.80;;;;;;5660050;22;20073;-92
2021/07/08 10:59:45;;;;;;;4.05;2.05;;;27.10;47.80;;;;;;4992906;28;20031;-92
2021/07/08 11:02:50;;;;;;;3.65;1.70;;;27.30;47.90;;;;;;4982176;28;20046;-91
2021/07/08 11:05:53;;;;;;;2.65;1.45;;;27.40;47.60;;;;;;4977920;28;20011;-91
2021/07/08 11:08:44;;;;;;;3.30;1.90;;;27.60;46.80;;;;;;4991521;28;20049;-92
2021/07/08 11:11:09;;;;;;;3.00;1.58;;;27.30;46.60;;;;;;4991531;28;20061;-91
2021/07/08 11:13:36;;;;;;;2.65;1.48;;;27.60;46.80;;;;;;4990238;28;20026;-91
2021/07/08 11:16:04;;;;;;;3.50;1.85;;;27.70;46.70;;;;;;4993645;28;20030;-92
2021/07/08 11:18:33;;;;;;;3.17;2.10;;;27.80;46.40;;;;;;4995916;28;20113;-92
2021/07/08 11:20:59;;;;;;;2.67;1.92;;;27.80;46.10;;;;;;4987718;28;20031;-91
2021/07/08 11:23:39;;;;;;;3.47;1.92;;;27.70;46.10;;;;;;4991638;28;20037;-95
2021/07/08 11:26:07;;;;;;;2.30;1.45;;;27.60;46.10;;;;;;4993197;28;20041;-90
2021/07/08 11:28:36;;;;;;;1.90;1.50;;;27.60;46.50;;;;;;4998076;28;20025;-96
2021/07/08 11:33:39;;;;;;;2.08;1.70;;;27.70;46.40;;;;;;5494496;22;20060;-96
2021/07/08 11:36:13;;;;;;;2.65;1.60;;;27.90;46.10;;;;;;5032221;28;20026;-91
2021/07/08 11:38:44;;;;;;;2.92;1.77;;;28.00;46.00;;;;;;5029841;28;20025;-91
2021/07/08 11:41:11;;;;;;;2.28;1.60;;;28.00;45.60;;;;;;5040251;28;20045;-92
2021/07/08 11:43:48;;;;;;;2.65;1.80;;;28.00;45.50;;;;;;5018463;28;20473;-92
2021/07/08 11:46:14;;;;;;;2.03;1.45;;;28.10;45.30;;;;;;5042941;28;20112;-90
2021/07/08 11:48:41;;;;;;;2.95;1.42;;;28.20;45.30;;;;;;5049172;28;20025;-91
2021/07/08 11:51:20;;;;;;;3.13;1.77;;;28.20;45.20;;;;;;5040254;28;20178;-90
2021/07/08 11:53:47;;;;;;;2.40;1.30;;;28.30;44.70;;;;;;5042801;28;20033;-92
2021/07/08 11:56:16;;;;;;;3.25;1.40;;;28.30;45.10;;;;;;5036229;28;20026;-93
2021/07/08 11:58:42;;;;;;;2.08;1.50;;;28.60;45.10;;;;;;5026534;28;20145;-92
2021/07/08 12:01:10;;;;;;;1.85;1.20;;;28.80;44.60;;;;;;5040839;28;20059;-96
2021/07/08 12:03:40;;;;;;;2.58;1.50;;;29.00;44.30;;;;;;5047525;28;20020;-95
2021/07/08 12:06:12;;;;;;;3.00;1.40;;;29.10;43.80;;;;;;5046759;28;20056;-93
2021/07/08 12:08:41;;;;;;;1.23;1.13;;;29.10;43.70;;;;;;5046661;28;20037;-93
2021/07/08 12:11:28;;;;;;;2.35;1.48;;;29.10;43.50;;;;;;5030317;28;20030;-93
2021/07/08 12:14:14;;;;;;;1.50;1.40;;;29.00;43.20;;;;;;5025983;28;20415;-96
2021/07/08 12:16:56;;;;;;;2.95;1.50;;;28.80;43.30;;;;;;5033942;28;20020;-93
2021/07/08 12:19:25;;;;;;;2.10;1.45;;;28.60;43.80;;;;;;5040976;28;20033;-94
2021/07/08 12:21:53;;;;;;;2.78;1.50;;;28.50;43.80;;;;;;5024349;28;20030;-93
2021/07/08 12:24:33;;;;;;;3.13;1.50;;;28.50;43.90;;;;;;5026794;28;20117;-96
2021/07/08 12:27:04;;;;;;;3.78;1.60;;;28.40;44.10;;;;;;5026238;28;20210;-92
2021/07/08 12:29:42;;;;;;;2.15;1.48;;;28.50;44.00;;;;;;5040336;28;20025;-95
2021/07/08 12:32:22;;;;;;;3.58;1.60;;;28.30;44.00;;;;;;5046447;28;20049;-93
2021/07/08 12:34:57;;;;;;;1.98;1.15;;;28.20;44.30;;;;;;5047654;28;20136;-96
2021/07/08 12:37:29;;;;;;;1.77;1.30;;;28.30;44.70;;;;;;5022332;28;20085;-93
2021/07/08 12:40:00;;;;;;;1.88;1.40;;;28.20;44.80;;;;;;5017716;28;20104;-93
2021/07/08 12:42:31;;;;;;;1.42;1.10;;;28.30;44.80;;;;;;5049840;28;20021;-93
2021/07/08 12:45:08;;;;;;;1.48;1.20;;;28.30;44.70;;;;;;5050221;28;20021;-93
2021/07/08 12:47:52;;;;;;;3.63;1.40;;;28.30;44.60;;;;;;5043265;28;20033;-92
2021/07/08 12:50:22;;;;;;;2.83;1.60;;;28.30;44.70;;;;;;5028197;28;20484;-91
2021/07/08 12:52:55;;;;;;;2.53;1.52;;;28.30;44.60;;;;;;5040690;28;20036;-91
2021/07/08 12:55:49;;;;;;;3.05;1.45;;;28.30;44.50;;;;;;5043687;28;20017;-92
2021/07/08 12:58:20;;;;;;;1.52;1.23;;;28.20;44.10;;;;;;5050375;28;20148;-94
2021/07/08 13:00:51;;;;;;;1.02;0.98;;;28.20;44.00;;;;;;5033442;28;20060;-92
2021/07/08 13:03:22;;;;;;;2.05;1.27;;;28.30;44.20;;;;;;5037113;28;20052;-92
2021/07/08 13:05:49;;;;;;;1.45;1.20;;;28.30;44.10;;;;;;5044599;28;20151;-91
2021/07/08 13:08:17;;;;;;;3.08;1.98;;;28.40;44.00;;;;;;5031636;28;20056;-95
2021/07/08 13:10:45;;;;;;;1.52;1.30;;;28.30;43.30;;;;;;5035280;28;20052;-93
2021/07/08 13:13:13;;;;;;;2.10;1.50;;;28.40;43.50;;;;;;5027327;28;20041;-92
2021/07/08 13:15:47;;;;;;;1.73;1.40;;;28.50;43.30;;;;;;5033350;28;20032;-91
2021/07/08 13:18:15;;;;;;;1.92;1.40;;;28.70;43.20;;;;;;5050429;28;20009;-93
2021/07/08 13:20:44;;;;;;;2.42;1.73;;;28.90;43.10;;;;;;5043387;28;20037;-96
2021/07/08 13:23:28;;;;;;;2.83;1.33;;;29.20;42.80;;;;;;5035748;28;20074;-96
2021/07/08 13:26:08;;;;;;;2.72;1.58;;;29.40;43.10;;;;;;5063511;28;20052;-96
2021/07/08 13:28:33;;;;;;;2.17;1.50;;;29.40;41.60;;;;;;5035287;28;20064;-96
2021/07/08 13:31:05;;;;;;;1.60;1.42;;;29.60;41.80;;;;;;5038723;28;20010;-96
2021/07/08 13:33:56;;;;;;;1.75;1.20;;;29.70;42.20;;;;;;5022575;28;20034;-95
2021/07/08 13:36:31;;;;;;;1.90;1.17;;;29.70;41.90;;;;;;5021735;28;20057;-96
2021/07/08 13:39:06;;;;;;;1.58;1.20;;;29.80;42.00;;;;;;5043901;28;20038;-96
2021/07/08 13:41:40;;;;;;;1.48;1.20;;;29.80;41.80;;;;;;5027047;28;20041;-95
2021/07/08 13:44:06;;;;;;;1.95;1.10;;;29.80;41.90;;;;;;5030481;28;20040;-96
2021/07/08 13:46:39;;;;;;;1.30;1.05;;;29.80;41.90;;;;;;5027329;28;20021;-96
2021/07/08 13:49:24;;;;;;;1.20;1.10;;;29.80;41.50;;;;;;5034772;28;20493;-96
2021/07/08 13:51:51;;;;;;;1.30;1.00;;;29.70;41.20;;;;;;5021275;28;20517;-96
2021/07/08 13:54:19;;;;;;;2.08;1.10;;;29.70;41.10;;;;;;5016716;28;20022;-96
2021/07/08 13:56:45;;;;;;;1.60;1.30;;;29.70;41.20;;;;;;5023394;28;20033;-95
2021/07/08 13:59:13;;;;;;;2.17;1.00;;;29.70;40.80;;;;;;5055535;28;20029;-96
2021/07/08 14:01:39;;;;;;;2.85;1.40;;;29.70;40.80;;;;;;5027970;28;20404;-96
2021/07/08 14:04:05;;;;;;;1.58;1.10;;;29.60;41.00;;;;;;5029746;28;20032;-93
2021/07/08 14:06:32;;;;;;;1.30;1.20;;;29.40;41.30;;;;;;5194490;22;20073;-94
2021/07/08 14:08:58;;;;;;;1.45;1.00;;;29.30;41.30;;;;;;5017523;28;20034;-96
2021/07/08 14:11:25;;;;;;;1.00;0.90;;;29.30;41.50;;;;;;5064584;23;20048;-92
2021/07/08 14:14:01;;;;;;;1.75;1.10;;;29.30;41.50;;;;;;5020472;28;20572;-94
2021/07/08 14:16:28;;;;;;;1.17;0.80;;;29.40;41.40;;;;;;5019122;28;20057;-94
2021/07/08 14:18:54;;;;;;;3.15;1.23;;;29.40;41.30;;;;;;5012114;28;20018;-93
2021/07/08 14:21:20;;;;;;;1.63;1.05;;;29.40;40.90;;;;;;5021117;28;20105;-94
2021/07/08 14:23:48;;;;;;;0.93;0.90;;;29.40;40.60;;;;;;5020048;28;20109;-93
2021/07/08 14:26:15;;;;;;;1.73;1.20;;;29.40;40.50;;;;;;5016710;28;20064;-95
2021/07/08 14:28:42;;;;;;;1.10;1.00;;;29.50;40.40;;;;;;5018328;28;20040;-95
2021/07/08 14:31:08;;;;;;;1.33;1.10;;;29.60;40.30;;;;;;5017510;28;20030;-96
2021/07/08 14:33:35;;;;;;;1.40;1.00;;;29.50;39.90;;;;;;5015223;28;20113;-96
2021/07/08 14:36:01;;;;;;;1.65;1.10;;;29.40;39.80;;;;;;5015668;28;20026;-95
2021/07/08 14:38:28;;;;;;;1.02;0.90;;;29.30;40.20;;;;;;5020677;28;20026;-95
2021/07/08 14:40:54;;;;;;;2.00;1.40;;;29.30;40.30;;;;;;5014353;28;20025;-95
2021/07/08 14:43:48;;;;;;;1.63;1.10;;;29.10;38.90;;;;;;5024342;28;20026;-94
2021/07/08 14:46:18;;;;;;;1.83;1.23;;;28.70;39.90;;;;;;5010968;28;20034;-96
2021/07/08 14:48:52;;;;;;;2.30;1.33;;;28.70;40.50;;;;;;5004341;28;20011;-95
2021/07/08 14:51:19;;;;;;;2.05;1.00;;;28.70;40.60;;;;;;5009045;28;20498;-95
2021/07/08 14:53:45;;;;;;;1.40;1.00;;;28.60;40.90;;;;;;5016208;28;20064;-96
2021/07/08 14:56:10;;;;;;;0.95;0.95;;;28.60;41.00;;;;;;5015670;28;20030;-96